Time;durP1;ratioP1;P1;durP2;ratioP2;P2;SDS_P1;SDS_P2;PMS_P1;PMS_P2;Temp;Humidity;BMP_temperature;BMP_pressure;BME280_temperature;BME280_humidity;BME280_pressure;Samples;Min_cycle;Max_cycle;Signal;HPM_P1;HPM_P2
2021/01/14 00:00:36;;;;;;;8.18;2.35;;;;;;;;;;5071506;28;20237;-76
2021/01/14 00:03:06;;;;;;;3.45;2.20;;;;;;;;;;5083308;28;20264;-72
2021/01/14 00:05:32;;;;;;;4.88;2.55;;;;;;;;;;5069563;28;20266;-72
2021/01/14 00:07:58;;;;;;;3.80;2.00;;;;;;;;;;5082497;28;20576;-77
2021/01/14 00:10:24;;;;;;;4.05;2.20;;;;;;;;;;5092921;28;20244;-74
2021/01/14 00:12:50;;;;;;;5.50;2.15;;;;;;;;;;5075702;28;20227;-73
2021/01/14 00:15:17;;;;;;;3.70;2.30;;;;;;;;;;5090878;28;20191;-72
2021/01/14 00:17:43;;;;;;;4.00;2.63;;;;;;;;;;5091195;28;20179;-75
2021/01/14 00:20:11;;;;;;;5.88;2.30;;;;;;;;;;5090888;28;20194;-72
2021/01/14 00:22:37;;;;;;;5.10;2.85;;;;;;;;;;5084594;28;20239;-75
2021/01/14 00:25:04;;;;;;;6.50;2.83;;;;;;;;;;5080524;28;20185;-75
2021/01/14 00:27:30;;;;;;;5.50;2.58;;;;;;;;;;5073714;28;20515;-75
2021/01/14 00:29:56;;;;;;;5.32;2.20;;;;;;;;;;5077907;28;20248;-72
2021/01/14 00:32:22;;;;;;;3.85;2.55;;;;;;;;;;5071351;28;20614;-73
2021/01/14 00:34:48;;;;;;;4.55;2.20;;;;;;;;;;5071000;28;20241;-72
2021/01/14 00:39:59;;;;;;;3.88;2.63;;;;;;;;;;5085383;28;20194;-72
2021/01/14 00:42:25;;;;;;;6.03;3.28;;;;;;;;;;5088705;28;20576;-72
2021/01/14 00:44:51;;;;;;;5.20;2.75;;;;;;;;;;5077352;28;20630;-73
2021/01/14 00:47:17;;;;;;;6.50;2.70;;;;;;;;;;5083198;28;20175;-73
2021/01/14 00:49:43;;;;;;;3.47;2.50;;;;;;;;;;5094285;28;20171;-72
2021/01/14 00:52:12;;;;;;;4.70;3.63;;;;;;;;;;5094378;28;20203;-72
2021/01/14 00:54:39;;;;;;;3.80;3.38;;;;;;;;;;5094124;28;20197;-71
2021/01/14 00:57:07;;;;;;;5.57;3.15;;;;;;;;;;5094427;28;20190;-72
2021/01/14 00:59:33;;;;;;;4.38;3.30;;;;;;;;;;5094268;28;20164;-71
2021/01/14 01:01:59;;;;;;;5.82;3.70;;;;;;;;;;5076256;28;20223;-71
2021/01/14 01:04:25;;;;;;;9.00;3.63;;;;;;;;;;5073264;28;20257;-72
2021/01/14 01:06:51;;;;;;;20.52;3.85;;;;;;;;;;5073661;28;20657;-71
2021/01/14 01:09:20;;;;;;;5.68;3.67;;;;;;;;;;5089394;28;20504;-74
2021/01/14 01:11:46;;;;;;;6.40;4.35;;;;;;;;;;5077330;28;20672;-73
2021/01/14 01:14:12;;;;;;;6.13;3.55;;;;;;;;;;5073172;28;20186;-73
2021/01/14 01:16:38;;;;;;;7.10;3.50;;;;;;;;;;5073608;28;20176;-74
2021/01/14 01:19:04;;;;;;;5.32;3.30;;;;;;;;;;5080504;28;20180;-73
2021/01/14 01:21:30;;;;;;;4.53;3.30;;;;;;;;;;5073927;28;20203;-72
2021/01/14 01:23:56;;;;;;;8.20;5.63;;;;;;;;;;5084908;28;20199;-73
2021/01/14 01:26:22;;;;;;;6.55;3.95;;;;;;;;;;5094020;28;20186;-71
2021/01/14 01:28:48;;;;;;;7.68;4.25;;;;;;;;;;5093873;28;20172;-73
2021/01/14 01:31:14;;;;;;;6.15;3.90;;;;;;;;;;5074797;28;20553;-72
2021/01/14 01:33:41;;;;;;;8.27;4.50;;;;;;;;;;5084773;28;20184;-72
2021/01/14 01:36:07;;;;;;;6.30;3.80;;;;;;;;;;5093005;28;20258;-73
2021/01/14 01:38:33;;;;;;;6.10;4.25;;;;;;;;;;5093460;28;20182;-72
2021/01/14 01:41:01;;;;;;;6.63;4.30;;;;;;;;;;5093292;28;20203;-73
2021/01/14 01:43:27;;;;;;;7.55;4.10;;;;;;;;;;5093540;28;20215;-73
2021/01/14 01:45:53;;;;;;;9.13;4.32;;;;;;;;;;5093022;28;20221;-75
2021/01/14 01:48:20;;;;;;;6.03;4.43;;;;;;;;;;5092887;28;20179;-71
2021/01/14 01:50:47;;;;;;;6.70;4.85;;;;;;;;;;5092958;28;20254;-71
2021/01/14 01:53:13;;;;;;;7.47;4.15;;;;;;;;;;5092551;28;20203;-74
2021/01/14 01:55:39;;;;;;;7.85;4.95;;;;;;;;;;5092778;28;20178;-72
2021/01/14 01:58:06;;;;;;;5.70;3.75;;;;;;;;;;5093356;28;20182;-71
2021/01/14 02:00:32;;;;;;;6.95;3.85;;;;;;;;;;5092754;28;20187;-73
2021/01/14 02:02:58;;;;;;;7.03;4.45;;;;;;;;;;5080539;28;20617;-72
2021/01/14 02:05:24;;;;;;;6.75;3.97;;;;;;;;;;5084329;28;20179;-71
2021/01/14 02:08:09;;;;;;;6.25;3.75;;;;;;;;;;5092766;28;20580;-73
2021/01/14 02:10:36;;;;;;;5.32;4.20;;;;;;;;;;5085876;28;20321;-74
2021/01/14 02:13:05;;;;;;;6.35;4.43;;;;;;;;;;5079727;28;20184;-72
2021/01/14 02:15:32;;;;;;;7.20;4.32;;;;;;;;;;5090978;28;20190;-74
2021/01/14 02:17:58;;;;;;;5.75;3.70;;;;;;;;;;5091639;28;20274;-71
2021/01/14 02:20:25;;;;;;;6.07;3.63;;;;;;;;;;5088739;28;20179;-71
2021/01/14 02:22:58;;;;;;;5.30;3.90;;;;;;;;;;5090422;28;20336;-74
2021/01/14 02:25:26;;;;;;;5.63;4.20;;;;;;;;;;5079980;28;20225;-73
2021/01/14 02:27:54;;;;;;;5.63;3.55;;;;;;;;;;5076701;28;20184;-74
2021/01/14 02:30:20;;;;;;;3.90;3.50;;;;;;;;;;5092608;28;20171;-73
2021/01/14 02:32:46;;;;;;;5.88;3.80;;;;;;;;;;5078360;28;20213;-73
2021/01/14 02:35:12;;;;;;;5.28;3.60;;;;;;;;;;5082097;28;20612;-72
2021/01/14 02:37:38;;;;;;;5.18;3.45;;;;;;;;;;5085538;28;20186;-71
2021/01/14 02:40:05;;;;;;;5.00;3.70;;;;;;;;;;5092817;28;20210;-73
2021/01/14 02:42:31;;;;;;;4.57;3.42;;;;;;;;;;5087910;28;20201;-73
2021/01/14 02:44:58;;;;;;;7.45;3.70;;;;;;;;;;5092141;28;20211;-73
2021/01/14 02:47:24;;;;;;;4.70;3.90;;;;;;;;;;5092458;28;20704;-72
2021/01/14 02:49:54;;;;;;;4.95;3.88;;;;;;;;;;5085802;28;20183;-70
2021/01/14 02:52:21;;;;;;;4.38;3.67;;;;;;;;;;5083719;28;20207;-73
2021/01/14 02:54:48;;;;;;;5.35;3.50;;;;;;;;;;5091846;28;20179;-72
2021/01/14 02:57:14;;;;;;;5.55;4.40;;;;;;;;;;5078466;28;20196;-72
2021/01/14 02:59:40;;;;;;;4.93;3.95;;;;;;;;;;5084920;28;20176;-73
2021/01/14 03:02:06;;;;;;;5.03;3.38;;;;;;;;;;5087121;28;20220;-70
2021/01/14 03:04:32;;;;;;;4.88;4.10;;;;;;;;;;5083430;28;20172;-74
2021/01/14 03:06:58;;;;;;;5.35;3.42;;;;;;;;;;5077780;28;20180;-72
2021/01/14 03:09:24;;;;;;;4.30;3.42;;;;;;;;;;5086873;28;20656;-72
2021/01/14 03:11:50;;;;;;;5.47;4.05;;;;;;;;;;5077606;28;20202;-73
2021/01/14 03:14:16;;;;;;;4.15;3.75;;;;;;;;;;5078265;28;20204;-73
2021/01/14 03:16:42;;;;;;;5.40;4.20;;;;;;;;;;5087707;28;20564;-71
2021/01/14 03:19:08;;;;;;;5.28;3.58;;;;;;;;;;5096095;28;20175;-74
2021/01/14 03:21:35;;;;;;;7.45;4.53;;;;;;;;;;5083296;28;20203;-72
2021/01/14 03:24:01;;;;;;;6.25;4.18;;;;;;;;;;5095816;28;20625;-70
2021/01/14 03:26:27;;;;;;;4.97;4.20;;;;;;;;;;5095699;28;20171;-73
2021/01/14 03:28:53;;;;;;;7.18;4.40;;;;;;;;;;5093628;28;20655;-71
2021/01/14 03:31:19;;;;;;;5.53;4.18;;;;;;;;;;5095744;28;20203;-70
2021/01/14 03:33:46;;;;;;;7.10;4.10;;;;;;;;;;5084434;28;20180;-71
2021/01/14 03:36:17;;;;;;;5.20;4.38;;;;;;;;;;5077984;28;20177;-71
2021/01/14 03:38:43;;;;;;;5.35;4.18;;;;;;;;;;5075842;28;20211;-72
2021/01/14 03:41:13;;;;;;;7.93;4.60;;;;;;;;;;5076447;28;20253;-74
2021/01/14 03:43:39;;;;;;;6.82;4.53;;;;;;;;;;5074929;28;20212;-73
2021/01/14 03:46:10;;;;;;;7.88;4.45;;;;;;;;;;5093995;28;20175;-71
2021/01/14 03:48:40;;;;;;;6.15;4.70;;;;;;;;;;5094702;28;20197;-72
2021/01/14 03:51:26;;;;;;;8.07;5.47;;;;;;;;;;5083742;28;20196;-72
2021/01/14 03:53:52;;;;;;;7.70;4.80;;;;;;;;;;5074850;28;20241;-73
2021/01/14 03:56:19;;;;;;;6.68;4.65;;;;;;;;;;5086086;28;20187;-72
2021/01/14 03:58:45;;;;;;;6.53;4.28;;;;;;;;;;5077803;28;20208;-73
2021/01/14 04:01:11;;;;;;;8.57;5.63;;;;;;;;;;5093297;28;20210;-72
2021/01/14 04:03:40;;;;;;;7.57;5.60;;;;;;;;;;5094797;28;20225;-75
2021/01/14 04:06:06;;;;;;;6.65;4.90;;;;;;;;;;5083432;28;20199;-72
2021/01/14 04:08:32;;;;;;;7.90;5.45;;;;;;;;;;5083932;28;20182;-71
2021/01/14 04:10:58;;;;;;;10.60;5.78;;;;;;;;;;5095856;28;20272;-72
2021/01/14 04:13:24;;;;;;;7.05;5.50;;;;;;;;;;5093706;28;20624;-71
2021/01/14 04:15:50;;;;;;;8.93;6.10;;;;;;;;;;5094166;28;20233;-72
2021/01/14 04:18:16;;;;;;;8.30;6.00;;;;;;;;;;5094581;28;20185;-70
2021/01/14 04:20:42;;;;;;;8.88;6.22;;;;;;;;;;5094208;28;20648;-70
2021/01/14 04:23:08;;;;;;;8.68;5.60;;;;;;;;;;5094928;28;20248;-73
2021/01/14 04:25:36;;;;;;;9.43;6.45;;;;;;;;;;5094661;28;20562;-76
2021/01/14 04:28:02;;;;;;;9.23;6.45;;;;;;;;;;5094635;28;20262;-73
2021/01/14 04:30:32;;;;;;;8.68;6.20;;;;;;;;;;5094057;28;20562;-70
2021/01/14 04:33:01;;;;;;;10.60;6.35;;;;;;;;;;5083229;28;20225;-71
2021/01/14 04:35:27;;;;;;;8.02;5.60;;;;;;;;;;5082444;28;20180;-72
2021/01/14 04:37:53;;;;;;;9.00;5.93;;;;;;;;;;5074240;28;20638;-73
2021/01/14 04:40:19;;;;;;;9.18;5.40;;;;;;;;;;5089201;28;20229;-71
2021/01/14 04:42:49;;;;;;;12.30;6.63;;;;;;;;;;5094463;28;20290;-72
2021/01/14 04:45:16;;;;;;;9.38;6.00;;;;;;;;;;5093902;28;20195;-72
2021/01/14 04:47:44;;;;;;;10.77;6.90;;;;;;;;;;5092880;28;20532;-73
2021/01/14 04:50:13;;;;;;;11.32;6.35;;;;;;;;;;5092477;28;20654;-71
2021/01/14 04:52:42;;;;;;;10.90;6.78;;;;;;;;;;5093476;28;20223;-73
2021/01/14 04:55:13;;;;;;;9.13;6.50;;;;;;;;;;5076370;28;20184;-71
2021/01/14 04:57:42;;;;;;;14.38;6.90;;;;;;;;;;5081165;28;20233;-72
2021/01/14 05:00:10;;;;;;;10.35;6.50;;;;;;;;;;5085760;28;20188;-73
2021/01/14 05:02:43;;;;;;;10.93;6.85;;;;;;;;;;5078305;28;20561;-73
2021/01/14 05:05:11;;;;;;;13.45;7.57;;;;;;;;;;5076463;28;20250;-71
2021/01/14 05:07:47;;;;;;;8.73;5.95;;;;;;;;;;5073845;28;20195;-72
2021/01/14 05:10:13;;;;;;;12.50;6.82;;;;;;;;;;5091700;28;20175;-74
2021/01/14 05:12:42;;;;;;;12.65;6.88;;;;;;;;;;5075936;28;20204;-73
2021/01/14 05:15:08;;;;;;;12.57;7.45;;;;;;;;;;5078224;28;20176;-71
2021/01/14 05:17:34;;;;;;;12.93;6.82;;;;;;;;;;5079929;28;20188;-74
2021/01/14 05:20:00;;;;;;;14.05;7.72;;;;;;;;;;5090436;28;20184;-74
2021/01/14 05:22:26;;;;;;;14.63;6.97;;;;;;;;;;5092031;28;20199;-73
2021/01/14 05:25:08;;;;;;;10.75;6.95;;;;;;;;;;5075570;28;20184;-74
2021/01/14 05:27:35;;;;;;;12.70;7.35;;;;;;;;;;5073267;28;20176;-72
2021/01/14 05:30:01;;;;;;;12.02;6.63;;;;;;;;;;5091398;28;20179;-72
2021/01/14 05:32:37;;;;;;;11.30;7.22;;;;;;;;;;5082586;28;20716;-72
2021/01/14 05:35:07;;;;;;;10.93;6.75;;;;;;;;;;5073777;28;20286;-73
2021/01/14 05:37:41;;;;;;;9.15;6.55;;;;;;;;;;5079404;28;20182;-72
2021/01/14 05:40:08;;;;;;;12.77;7.05;;;;;;;;;;5093277;28;20269;-73
2021/01/14 05:42:34;;;;;;;14.00;6.75;;;;;;;;;;5086692;28;20754;-71
2021/01/14 05:45:00;;;;;;;9.10;6.40;;;;;;;;;;5075241;28;20545;-71
2021/01/14 05:47:29;;;;;;;12.30;7.95;;;;;;;;;;5093005;28;20201;-72
2021/01/14 05:49:55;;;;;;;10.20;6.90;;;;;;;;;;5093619;28;20178;-73
2021/01/14 05:52:22;;;;;;;16.88;11.30;;;;;;;;;;5092703;28;20595;-72
2021/01/14 05:54:53;;;;;;;13.05;7.38;;;;;;;;;;5088135;28;20611;-72
2021/01/14 05:57:19;;;;;;;13.43;9.45;;;;;;;;;;5074976;28;20176;-72
2021/01/14 05:59:54;;;;;;;12.30;7.20;;;;;;;;;;5080135;28;20181;-74
2021/01/14 06:02:47;;;;;;;24.60;16.13;;;;;;;;;;5085974;28;20290;-73
2021/01/14 06:05:25;;;;;;;12.40;9.05;;;;;;;;;;5072460;28;20184;-72
2021/01/14 06:07:52;;;;;;;15.55;8.85;;;;;;;;;;5082159;28;20202;-71
2021/01/14 06:10:31;;;;;;;10.43;7.40;;;;;;;;;;5096805;28;20648;-71
2021/01/14 06:12:57;;;;;;;13.30;8.02;;;;;;;;;;5089122;28;20249;-73
2021/01/14 06:15:23;;;;;;;24.48;17.83;;;;;;;;;;5082483;28;20187;-71
2021/01/14 06:17:50;;;;;;;13.00;8.68;;;;;;;;;;5072920;28;20179;-71
2021/01/14 06:20:16;;;;;;;15.60;11.00;;;;;;;;;;5077714;28;20179;-71
2021/01/14 06:22:45;;;;;;;19.05;11.93;;;;;;;;;;5090669;28;20256;-71
2021/01/14 06:25:11;;;;;;;12.50;9.27;;;;;;;;;;5096794;28;20183;-76
2021/01/14 06:27:37;;;;;;;17.48;8.75;;;;;;;;;;5094064;28;20536;-72
2021/01/14 06:30:10;;;;;;;11.82;7.75;;;;;;;;;;5095561;28;20246;-72
2021/01/14 06:32:38;;;;;;;13.02;9.30;;;;;;;;;;5096745;28;20213;-73
2021/01/14 06:35:07;;;;;;;10.63;7.80;;;;;;;;;;5086870;28;20191;-72
2021/01/14 06:37:39;;;;;;;12.40;7.10;;;;;;;;;;5095983;28;20187;-72
2021/01/14 06:40:06;;;;;;;12.15;7.55;;;;;;;;;;5092773;28;20250;-73
2021/01/14 06:42:36;;;;;;;13.93;7.05;;;;;;;;;;5096639;28;20219;-72
2021/01/14 06:45:05;;;;;;;12.25;7.90;;;;;;;;;;5095619;28;20528;-72
2021/01/14 06:47:34;;;;;;;13.15;6.90;;;;;;;;;;5096603;28;20266;-70
2021/01/14 06:50:16;;;;;;;9.90;7.65;;;;;;;;;;5095119;28;20628;-72
2021/01/14 06:52:43;;;;;;;10.77;8.30;;;;;;;;;;5085779;28;20238;-74
2021/01/14 06:55:10;;;;;;;10.88;7.80;;;;;;;;;;5095088;28;20187;-72
2021/01/14 06:57:36;;;;;;;8.63;6.95;;;;;;;;;;5076264;28;20583;-71
2021/01/14 07:00:06;;;;;;;11.88;7.93;;;;;;;;;;5076182;28;20184;-73
2021/01/14 07:02:35;;;;;;;12.77;7.35;;;;;;;;;;5095718;28;20207;-72
2021/01/14 07:05:05;;;;;;;12.90;8.05;;;;;;;;;;5093157;28;20255;-71
2021/01/14 07:07:47;;;;;;;14.25;7.85;;;;;;;;;;5096198;28;20195;-74
2021/01/14 07:10:14;;;;;;;11.75;7.65;;;;;;;;;;5097864;28;20175;-72
2021/01/14 07:12:42;;;;;;;10.45;7.55;;;;;;;;;;5083654;28;20199;-74
2021/01/14 07:15:08;;;;;;;9.82;6.90;;;;;;;;;;5095260;28;20184;-73
2021/01/14 07:17:41;;;;;;;12.25;7.50;;;;;;;;;;5095844;28;20222;-74
2021/01/14 07:20:11;;;;;;;10.02;7.55;;;;;;;;;;5083306;28;20175;-74
2021/01/14 07:22:38;;;;;;;15.30;9.30;;;;;;;;;;5090625;28;20211;-75
2021/01/14 07:25:06;;;;;;;13.13;9.00;;;;;;;;;;5095124;28;20254;-72
2021/01/14 07:27:34;;;;;;;10.98;7.55;;;;;;;;;;5086730;28;20176;-71
2021/01/14 07:30:00;;;;;;;13.15;7.80;;;;;;;;;;5094180;28;20644;-74
2021/01/14 07:32:45;;;;;;;10.48;8.15;;;;;;;;;;5095432;28;20199;-72
2021/01/14 07:35:31;;;;;;;12.20;8.45;;;;;;;;;;5095688;28;20251;-74
2021/01/14 07:37:57;;;;;;;11.88;8.32;;;;;;;;;;5085728;28;20187;-71
2021/01/14 07:40:30;;;;;;;13.65;8.10;;;;;;;;;;5094971;28;20277;-73
2021/01/14 07:42:56;;;;;;;11.75;8.38;;;;;;;;;;5095409;28;20199;-72
2021/01/14 07:45:22;;;;;;;9.15;6.82;;;;;;;;;;5095459;28;20224;-71
2021/01/14 07:47:48;;;;;;;41.97;30.08;;;;;;;;;;5086924;28;20254;-72
2021/01/14 07:50:22;;;;;;;10.50;8.85;;;;;;;;;;5075272;28;20182;-73
2021/01/14 07:52:49;;;;;;;14.43;9.43;;;;;;;;;;5081255;28;20226;-73
2021/01/14 07:55:31;;;;;;;11.85;8.65;;;;;;;;;;5080293;28;20182;-73
2021/01/14 07:58:21;;;;;;;11.50;7.90;;;;;;;;;;5076065;28;20176;-71
2021/01/14 08:01:01;;;;;;;12.15;7.65;;;;;;;;;;5085300;28;20183;-73
2021/01/14 08:03:37;;;;;;;13.38;8.68;;;;;;;;;;5078079;28;20207;-73
2021/01/14 08:06:17;;;;;;;11.43;7.90;;;;;;;;;;5077238;28;20526;-74
2021/01/14 08:08:54;;;;;;;10.00;7.00;;;;;;;;;;5094463;28;20182;-74
2021/01/14 08:11:21;;;;;;;14.32;9.13;;;;;;;;;;5085293;28;20195;-73
2021/01/14 08:14:05;;;;;;;12.30;8.40;;;;;;;;;;5090900;28;20194;-72
2021/01/14 08:16:32;;;;;;;11.13;7.70;;;;;;;;;;5091294;28;20256;-74
2021/01/14 08:19:17;;;;;;;11.77;8.93;;;;;;;;;;5089363;28;20178;-73
2021/01/14 08:21:44;;;;;;;15.98;8.05;;;;;;;;;;5090872;28;20204;-72
2021/01/14 08:24:11;;;;;;;14.27;8.45;;;;;;;;;;5090592;28;20218;-71
2021/01/14 08:26:52;;;;;;;12.70;8.20;;;;;;;;;;5091231;28;20183;-71
2021/01/14 08:29:32;;;;;;;12.80;7.70;;;;;;;;;;5083771;28;20290;-72
2021/01/14 08:31:58;;;;;;;12.15;8.88;;;;;;;;;;5070554;28;20223;-73
2021/01/14 08:34:25;;;;;;;12.50;8.10;;;;;;;;;;5070323;28;20185;-72
2021/01/14 08:36:54;;;;;;;11.18;8.35;;;;;;;;;;5078060;28;20194;-73
2021/01/14 08:39:25;;;;;;;10.90;8.20;;;;;;;;;;5074261;28;20238;-72
2021/01/14 08:41:52;;;;;;;24.60;15.98;;;;;;;;;;5079214;28;20546;-74
2021/01/14 08:44:18;;;;;;;55.00;30.65;;;;;;;;;;5072599;28;20324;-75
2021/01/14 08:46:50;;;;;;;41.55;23.42;;;;;;;;;;5077980;28;20942;-72
2021/01/14 08:49:17;;;;;;;42.97;21.55;;;;;;;;;;5073051;28;20345;-71
2021/01/14 08:51:43;;;;;;;57.83;30.70;;;;;;;;;;5076594;28;20206;-71
2021/01/14 08:54:09;;;;;;;24.67;13.63;;;;;;;;;;5083838;28;20699;-73
2021/01/14 08:56:36;;;;;;;16.33;9.95;;;;;;;;;;5086790;28;20187;-73
2021/01/14 08:59:12;;;;;;;13.57;9.30;;;;;;;;;;5072572;28;20523;-72
2021/01/14 09:01:38;;;;;;;13.80;9.27;;;;;;;;;;5070878;28;20223;-72
2021/01/14 09:04:09;;;;;;;16.25;10.32;;;;;;;;;;5069471;28;20203;-73
2021/01/14 09:06:38;;;;;;;11.55;8.40;;;;;;;;;;5069866;28;20564;-74
2021/01/14 09:09:24;;;;;;;14.77;10.30;;;;;;;;;;5079964;28;20296;-72
2021/01/14 09:11:50;;;;;;;13.05;11.32;;;;;;;;;;5089770;28;20268;-72
2021/01/14 09:14:18;;;;;;;21.58;13.05;;;;;;;;;;5089191;28;20263;-74
2021/01/14 09:16:47;;;;;;;13.20;9.30;;;;;;;;;;5071076;28;20184;-72
2021/01/14 09:19:16;;;;;;;13.85;8.88;;;;;;;;;;5069662;28;20183;-72
2021/01/14 09:21:42;;;;;;;9.48;7.00;;;;;;;;;;5069417;28;20200;-73
2021/01/14 09:24:12;;;;;;;9.90;7.70;;;;;;;;;;5068964;28;20577;-71
2021/01/14 09:26:40;;;;;;;14.00;10.65;;;;;;;;;;5083837;28;20636;-73
2021/01/14 09:29:06;;;;;;;14.15;11.80;;;;;;;;;;5085932;28;20270;-74
2021/01/14 09:31:35;;;;;;;14.73;9.07;;;;;;;;;;5073191;28;20237;-74
2021/01/14 09:34:02;;;;;;;9.32;7.57;;;;;;;;;;5070038;28;20704;-73
2021/01/14 09:36:29;;;;;;;10.45;7.88;;;;;;;;;;5081954;28;20184;-72
2021/01/14 09:38:59;;;;;;;12.45;8.23;;;;;;;;;;5081187;28;20215;-73
2021/01/14 09:41:32;;;;;;;10.20;8.52;;;;;;;;;;5071775;28;20296;-73
2021/01/14 09:43:58;;;;;;;12.35;8.80;;;;;;;;;;5088947;28;20340;-74
2021/01/14 09:46:25;;;;;;;9.73;7.47;;;;;;;;;;5089508;28;20176;-73
2021/01/14 09:48:56;;;;;;;10.63;8.75;;;;;;;;;;5087944;28;20179;-73
2021/01/14 09:51:22;;;;;;;10.80;9.05;;;;;;;;;;5086653;28;20601;-74
2021/01/14 09:53:48;;;;;;;24.98;16.60;;;;;;;;;;5072147;28;20266;-74
2021/01/14 09:56:23;;;;;;;8.00;6.30;;;;;;;;;;5078824;28;20198;-73
2021/01/14 09:58:53;;;;;;;9.98;7.20;;;;;;;;;;5069604;28;20183;-73
2021/01/14 10:01:20;;;;;;;18.52;11.63;;;;;;;;;;5072290;28;20200;-72
2021/01/14 10:03:54;;;;;;;11.65;7.95;;;;;;;;;;5067309;28;20208;-72
2021/01/14 10:06:21;;;;;;;12.30;7.72;;;;;;;;;;5084482;28;20232;-74
2021/01/14 10:08:49;;;;;;;11.27;7.68;;;;;;;;;;5093051;28;20173;-72
2021/01/14 10:11:17;;;;;;;11.75;7.45;;;;;;;;;;5081190;28;20191;-72
2021/01/14 10:13:52;;;;;;;10.00;7.43;;;;;;;;;;5080593;28;20183;-74
2021/01/14 10:16:22;;;;;;;10.55;7.20;;;;;;;;;;5088961;28;20179;-74
2021/01/14 10:18:48;;;;;;;10.85;6.78;;;;;;;;;;5088971;28;20189;-72
2021/01/14 10:21:21;;;;;;;10.80;7.45;;;;;;;;;;5088451;28;20203;-72
2021/01/14 10:23:48;;;;;;;12.75;8.35;;;;;;;;;;5071862;28;20759;-72
2021/01/14 10:26:29;;;;;;;12.70;7.70;;;;;;;;;;5082928;28;20191;-74
2021/01/14 10:28:56;;;;;;;12.90;7.35;;;;;;;;;;5076967;28;20179;-75
2021/01/14 10:31:32;;;;;;;13.25;8.07;;;;;;;;;;5077566;28;20229;-72
2021/01/14 10:33:58;;;;;;;12.98;8.20;;;;;;;;;;5086979;28;20260;-73
2021/01/14 10:36:24;;;;;;;12.00;7.80;;;;;;;;;;5084518;28;20222;-72
2021/01/14 10:38:52;;;;;;;12.07;8.35;;;;;;;;;;5076975;28;20205;-75
2021/01/14 10:41:22;;;;;;;8.60;6.78;;;;;;;;;;5089214;28;20203;-72
2021/01/14 10:43:48;;;;;;;11.02;7.40;;;;;;;;;;5087324;28;20286;-72
2021/01/14 10:46:23;;;;;;;10.57;7.65;;;;;;;;;;5088723;28;20532;-73
2021/01/14 10:48:49;;;;;;;12.15;7.95;;;;;;;;;;5076953;28;20533;-73
2021/01/14 10:51:31;;;;;;;10.52;7.03;;;;;;;;;;5075517;28;20192;-72
2021/01/14 10:53:57;;;;;;;11.32;6.82;;;;;;;;;;5083924;28;20581;-74
2021/01/14 10:56:24;;;;;;;9.43;7.13;;;;;;;;;;5088565;28;20266;-72
2021/01/14 10:59:06;;;;;;;10.50;7.43;;;;;;;;;;5088913;28;20571;-73
2021/01/14 11:01:32;;;;;;;8.50;6.97;;;;;;;;;;5069992;28;20573;-74
2021/01/14 11:04:07;;;;;;;10.50;7.85;;;;;;;;;;5068124;28;20261;-72
2021/01/14 11:06:37;;;;;;;11.52;7.72;;;;;;;;;;5073297;28;20187;-74
2021/01/14 11:09:04;;;;;;;12.63;10.27;;;;;;;;;;5083252;28;20175;-73
2021/01/14 11:11:31;;;;;;;15.77;10.45;;;;;;;;;;5090460;28;20236;-72
2021/01/14 11:13:57;;;;;;;11.05;8.60;;;;;;;;;;5085229;28;20663;-73
2021/01/14 11:16:25;;;;;;;11.80;8.23;;;;;;;;;;5086652;28;20268;-74
2021/01/14 11:18:52;;;;;;;10.48;7.72;;;;;;;;;;5082063;28;20964;-74
2021/01/14 11:21:19;;;;;;;11.35;7.95;;;;;;;;;;5091241;28;20207;-72
2021/01/14 11:23:45;;;;;;;11.07;8.30;;;;;;;;;;5091414;28;20285;-73
2021/01/14 11:26:18;;;;;;;9.65;7.93;;;;;;;;;;5084579;28;20200;-72
2021/01/14 11:28:45;;;;;;;10.02;7.75;;;;;;;;;;5086172;28;20277;-71
2021/01/14 11:31:14;;;;;;;13.25;7.75;;;;;;;;;;5071926;28;20192;-73
2021/01/14 11:33:41;;;;;;;10.27;7.72;;;;;;;;;;5080279;28;20185;-72
2021/01/14 11:36:07;;;;;;;12.18;8.13;;;;;;;;;;5075054;28;20188;-72
2021/01/14 11:38:34;;;;;;;9.45;7.97;;;;;;;;;;5081780;28;20187;-74
2021/01/14 11:41:00;;;;;;;9.80;7.35;;;;;;;;;;5089836;28;20203;-75
2021/01/14 11:43:26;;;;;;;12.00;8.73;;;;;;;;;;5076808;28;20599;-74
2021/01/14 11:45:52;;;;;;;9.40;7.55;;;;;;;;;;5071321;28;20573;-70
2021/01/14 11:48:18;;;;;;;9.65;7.40;;;;;;;;;;5072551;28;20180;-73
2021/01/14 11:50:44;;;;;;;10.82;9.05;;;;;;;;;;5071794;28;20176;-71
2021/01/14 11:53:10;;;;;;;15.95;8.27;;;;;;;;;;5071632;28;20210;-70
2021/01/14 11:55:36;;;;;;;11.73;7.80;;;;;;;;;;5074266;28;20613;-74
2021/01/14 11:58:02;;;;;;;9.32;7.53;;;;;;;;;;5077880;28;20203;-73
2021/01/14 12:00:28;;;;;;;13.07;10.25;;;;;;;;;;5091700;28;20184;-74
2021/01/14 12:02:54;;;;;;;13.35;8.55;;;;;;;;;;5090355;28;20779;-72
2021/01/14 12:05:20;;;;;;;12.00;7.97;;;;;;;;;;5077547;28;20354;-71
2021/01/14 12:07:46;;;;;;;8.40;6.80;;;;;;;;;;5086751;28;20199;-73
2021/01/14 12:10:12;;;;;;;9.75;7.63;;;;;;;;;;5090433;28;20624;-74
2021/01/14 12:12:38;;;;;;;10.30;7.90;;;;;;;;;;5085054;28;20599;-73
2021/01/14 12:15:05;;;;;;;11.52;7.97;;;;;;;;;;5080222;28;20183;-71
2021/01/14 12:17:32;;;;;;;10.20;7.32;;;;;;;;;;5091099;28;20180;-73
2021/01/14 12:19:58;;;;;;;9.98;6.95;;;;;;;;;;5090603;28;20186;-74
2021/01/14 12:22:24;;;;;;;10.05;7.30;;;;;;;;;;5071146;28;20253;-74
2021/01/14 12:24:50;;;;;;;9.30;7.45;;;;;;;;;;5070798;28;20204;-72
2021/01/14 12:27:16;;;;;;;10.20;6.88;;;;;;;;;;5084832;28;20263;-73
2021/01/14 12:29:42;;;;;;;12.20;8.00;;;;;;;;;;5086478;28;20190;-73
2021/01/14 12:32:08;;;;;;;12.98;8.57;;;;;;;;;;5084851;28;20290;-71
2021/01/14 12:34:34;;;;;;;12.35;8.38;;;;;;;;;;5068855;28;20657;-73
2021/01/14 12:37:01;;;;;;;12.15;8.18;;;;;;;;;;5082004;28;20246;-72
2021/01/14 12:39:27;;;;;;;11.25;8.15;;;;;;;;;;5083275;28;20187;-72
2021/01/14 12:41:53;;;;;;;11.07;8.07;;;;;;;;;;5088554;28;20278;-72
2021/01/14 12:44:19;;;;;;;11.13;8.00;;;;;;;;;;5088862;28;20207;-71
2021/01/14 12:46:46;;;;;;;12.23;7.95;;;;;;;;;;5085402;28;20195;-74
2021/01/14 12:49:13;;;;;;;9.10;7.53;;;;;;;;;;5090958;28;20283;-74
2021/01/14 12:51:39;;;;;;;10.63;8.60;;;;;;;;;;5084736;28;20208;-72
2021/01/14 12:54:05;;;;;;;11.30;7.85;;;;;;;;;;5085225;28;20641;-72
2021/01/14 12:56:31;;;;;;;10.30;7.88;;;;;;;;;;5090308;28;20192;-72
2021/01/14 12:58:57;;;;;;;10.45;8.45;;;;;;;;;;5089958;28;20191;-73
2021/01/14 13:01:27;;;;;;;13.32;7.68;;;;;;;;;;5090315;28;20211;-72
2021/01/14 13:03:53;;;;;;;8.98;7.03;;;;;;;;;;5087257;28;20203;-74
2021/01/14 13:06:22;;;;;;;9.02;7.50;;;;;;;;;;5068601;28;20192;-73
2021/01/14 13:08:48;;;;;;;9.75;8.10;;;;;;;;;;5082694;28;20247;-70
2021/01/14 13:11:14;;;;;;;10.43;7.80;;;;;;;;;;5079163;28;20195;-72
2021/01/14 13:13:40;;;;;;;12.45;7.95;;;;;;;;;;5089332;28;20190;-73
2021/01/14 13:16:06;;;;;;;11.10;8.35;;;;;;;;;;5088524;28;20183;-74
2021/01/14 13:18:32;;;;;;;14.38;9.20;;;;;;;;;;5089454;28;20506;-73
2021/01/14 13:20:58;;;;;;;9.98;8.32;;;;;;;;;;5090011;28;20233;-73
2021/01/14 13:23:24;;;;;;;13.80;9.63;;;;;;;;;;5085318;28;20212;-71
2021/01/14 13:25:50;;;;;;;11.85;9.35;;;;;;;;;;5069236;28;20186;-73
2021/01/14 13:28:16;;;;;;;12.45;9.25;;;;;;;;;;5080404;28;20175;-74
2021/01/14 13:30:42;;;;;;;14.93;10.13;;;;;;;;;;5089036;28;20186;-74
2021/01/14 13:33:08;;;;;;;11.00;8.95;;;;;;;;;;5089312;28;20258;-73
2021/01/14 13:35:34;;;;;;;12.43;9.32;;;;;;;;;;5089316;28;20211;-74
2021/01/14 13:38:00;;;;;;;12.30;9.05;;;;;;;;;;5081059;28;20191;-73
2021/01/14 13:40:26;;;;;;;11.20;8.40;;;;;;;;;;5082349;28;20191;-72
2021/01/14 13:42:52;;;;;;;10.30;8.02;;;;;;;;;;5089476;28;20279;-74
2021/01/14 13:45:19;;;;;;;11.13;7.82;;;;;;;;;;5088542;28;20179;-73
2021/01/14 13:47:45;;;;;;;10.88;7.50;;;;;;;;;;5082847;28;20214;-72
2021/01/14 13:50:12;;;;;;;11.10;8.25;;;;;;;;;;5089851;28;20210;-75
2021/01/14 13:52:38;;;;;;;10.57;8.32;;;;;;;;;;5090943;28;20207;-73
2021/01/14 13:55:04;;;;;;;11.35;7.95;;;;;;;;;;5087476;28;20564;-72
2021/01/14 13:57:30;;;;;;;10.35;8.85;;;;;;;;;;5072337;28;20187;-74
2021/01/14 13:59:56;;;;;;;10.82;8.18;;;;;;;;;;5075633;28;20172;-71
2021/01/14 14:02:26;;;;;;;12.95;8.57;;;;;;;;;;5074406;28;20548;-73
2021/01/14 14:04:52;;;;;;;10.85;8.30;;;;;;;;;;5076024;28;20207;-74
2021/01/14 14:07:18;;;;;;;9.57;8.48;;;;;;;;;;5073697;28;20194;-74
2021/01/14 14:09:44;;;;;;;11.90;8.00;;;;;;;;;;5100035;28;20198;-74
2021/01/14 14:12:10;;;;;;;8.98;7.47;;;;;;;;;;5072218;28;20222;-73
2021/01/14 14:14:36;;;;;;;12.18;8.48;;;;;;;;;;5089109;28;20175;-72
2021/01/14 14:17:05;;;;;;;11.05;7.75;;;;;;;;;;5082946;28;20188;-75
2021/01/14 14:19:31;;;;;;;11.15;8.05;;;;;;;;;;5069087;28;20180;-74
2021/01/14 14:21:57;;;;;;;11.45;7.63;;;;;;;;;;5080968;28;20208;-72
2021/01/14 14:24:23;;;;;;;14.35;8.80;;;;;;;;;;5067069;28;20215;-73
2021/01/14 14:26:49;;;;;;;12.68;9.13;;;;;;;;;;5087657;28;20180;-74
2021/01/14 14:29:15;;;;;;;11.32;8.82;;;;;;;;;;5088968;28;20180;-74
2021/01/14 14:31:42;;;;;;;10.45;8.80;;;;;;;;;;5086307;28;20199;-74
2021/01/14 14:34:08;;;;;;;10.77;8.98;;;;;;;;;;5076205;28;20188;-72
2021/01/14 14:36:37;;;;;;;13.75;9.82;;;;;;;;;;5079811;28;20191;-74
2021/01/14 14:39:03;;;;;;;10.55;8.73;;;;;;;;;;5069928;28;20541;-72
2021/01/14 14:41:30;;;;;;;11.98;8.68;;;;;;;;;;5078943;28;20592;-72